Kezdőlap
METAR-TAF:

METAR-TAF

Repülőterek :

Ada, Oklahoma, Amerikai Egyesült Államok

földrajzi szélesség: 34-48-16N, földrajzi hosszúság: 096-40-17W, magasság: 310 m

Jelenlegi meteorológiai megfigyelések

A jelentés 28 perccel ezelõtt készült, 18:35 UTC
Déli szél 9 kt széllökések: 14 kt
Hőmérséklet 34°C
Páratartalom 44%
Légköri nyomás 1019 hPa
Látótávolság: 16.1 km
Derült ég

METAR: KADH 121835Z AUTO 17009G14KT 10SM CLR 34/20 A3010 RMK AO2

Idő: 14:03 (19:03 UTC)


TAF: hiányzik

Meteorológiai megfigyelések és előrejelzések több, mint 4000 repülőtéren (METAR és TAF jelentéseket).

A térképen piros és sárga pontok jelzik az elérhető meteorológiai állomásokat.

Mozgassa az egeret a pont fölött, hogy megjelenjen az állomás neve.

Azután kattintson az időjárási megfigyelések és előrejelzések megtekintéséhez.

A térkép megváltoztatása: kattintson a fekete keresztel jelölt zöld gombra ráközelítéshez, a vonallal jelölt zöld gombra távolításhoz, vagy a zöld nyilakra a szomszédos térképek eléréséhez.


METAR-TAF: